Time;durP1;ratioP1;P1;durP2;ratioP2;P2;SDS_P1;SDS_P2;PMS_P1;PMS_P2;Temp;Humidity;BMP_temperature;BMP_pressure;BME280_temperature;BME280_humidity;BME280_pressure;Samples;Min_cycle;Max_cycle;Signal;HPM_P1;HPM_P2
2022/03/07 00:02:09;;;;;;;3.67;2.75;;;;;7.80;102614.00;;;;5030219;28;20243;-77
2022/03/07 00:04:37;;;;;;;4.00;3.22;;;;;7.80;102619.00;;;;5049106;28;20199;-77
2022/03/07 00:07:05;;;;;;;2.75;2.45;;;;;7.80;102617.00;;;;5047057;28;20191;-77
2022/03/07 00:09:32;;;;;;;3.60;3.00;;;;;7.80;102609.00;;;;5049103;28;20666;-77
2022/03/07 00:12:00;;;;;;;3.25;2.42;;;;;7.80;102608.00;;;;5044590;28;20196;-77
2022/03/07 00:14:27;;;;;;;3.80;2.78;;;;;7.80;102609.00;;;;5048635;28;20191;-78
2022/03/07 00:16:54;;;;;;;4.03;2.88;;;;;7.80;102619.00;;;;5061565;28;20191;-76
2022/03/07 00:19:21;;;;;;;3.08;2.65;;;;;7.80;102616.00;;;;5038452;28;20686;-77
2022/03/07 00:21:50;;;;;;;3.03;2.60;;;;;7.70;102605.00;;;;5037469;28;20245;-77
2022/03/07 00:24:17;;;;;;;3.22;2.70;;;;;7.70;102614.00;;;;5048728;28;20199;-77
2022/03/07 00:26:44;;;;;;;4.68;2.97;;;;;7.70;102606.00;;;;5045526;28;20211;-77
2022/03/07 00:29:11;;;;;;;4.72;3.03;;;;;7.70;102617.00;;;;5039333;28;20195;-77
2022/03/07 00:31:39;;;;;;;4.13;2.70;;;;;7.60;102615.00;;;;5030563;28;20681;-77
2022/03/07 00:34:06;;;;;;;6.82;2.58;;;;;7.60;102622.00;;;;5048704;28;20207;-77
2022/03/07 00:36:33;;;;;;;4.25;2.75;;;;;7.60;102627.00;;;;5046697;28;20203;-77
2022/03/07 00:39:02;;;;;;;3.00;2.40;;;;;7.60;102624.00;;;;5028079;28;20196;-77
2022/03/07 00:41:29;;;;;;;3.53;2.38;;;;;7.60;102626.00;;;;5029226;28;20200;-77
2022/03/07 00:43:56;;;;;;;3.47;2.50;;;;;7.60;102627.00;;;;5048305;28;20717;-77
2022/03/07 00:46:23;;;;;;;2.95;2.53;;;;;7.60;102625.00;;;;5047600;28;20211;-77
2022/03/07 00:48:50;;;;;;;3.40;2.60;;;;;7.50;102634.00;;;;5028506;28;20207;-77
2022/03/07 00:51:18;;;;;;;3.03;2.45;;;;;7.50;102633.00;;;;5029160;28;20200;-77
2022/03/07 00:53:46;;;;;;;5.35;2.55;;;;;7.50;102639.00;;;;5046285;28;20211;-77
2022/03/07 00:56:14;;;;;;;4.57;2.28;;;;;7.50;102624.00;;;;5028700;28;20274;-77
2022/03/07 00:58:42;;;;;;;2.70;2.25;;;;;7.50;102632.00;;;;5031128;28;20203;-77
2022/03/07 01:01:09;;;;;;;3.53;2.75;;;;;7.50;102641.00;;;;5028400;28;20196;-77
2022/03/07 01:03:36;;;;;;;4.80;2.67;;;;;7.40;102634.00;;;;5044134;28;20265;-77
2022/03/07 01:06:03;;;;;;;3.92;2.50;;;;;7.40;102633.00;;;;5039084;28;20196;-77
2022/03/07 01:08:31;;;;;;;4.07;2.63;;;;;7.40;102638.00;;;;5032034;28;20212;-77
2022/03/07 01:10:58;;;;;;;3.08;2.78;;;;;7.40;102641.00;;;;5028357;28;20560;-77
2022/03/07 01:13:27;;;;;;;3.88;2.72;;;;;7.30;102639.00;;;;5045577;28;20596;-77
2022/03/07 01:15:54;;;;;;;2.92;2.50;;;;;7.30;102638.00;;;;5048755;28;20211;-77
2022/03/07 01:18:21;;;;;;;3.60;2.63;;;;;7.30;102632.00;;;;5046877;28;20203;-77
2022/03/07 01:20:49;;;;;;;5.45;3.05;;;;;7.30;102633.00;;;;5042866;28;20199;-77
2022/03/07 01:23:16;;;;;;;3.53;2.50;;;;;7.20;102630.00;;;;5050249;28;20222;-77
2022/03/07 01:25:43;;;;;;;4.28;3.03;;;;;7.20;102638.00;;;;5047130;28;20215;-77
2022/03/07 01:28:10;;;;;;;3.70;2.78;;;;;7.20;102632.00;;;;5047017;28;20203;-77
2022/03/07 01:30:39;;;;;;;3.85;2.72;;;;;7.20;102643.00;;;;5029167;28;20200;-77
2022/03/07 01:33:06;;;;;;;5.43;2.75;;;;;7.10;102630.00;;;;5028183;28;20219;-77
2022/03/07 01:35:33;;;;;;;4.13;2.53;;;;;7.10;102632.00;;;;5036581;28;20612;-77
2022/03/07 01:38:00;;;;;;;3.42;2.58;;;;;7.10;102621.00;;;;5033415;28;20666;-77
2022/03/07 01:40:28;;;;;;;4.30;2.47;;;;;7.10;102627.00;;;;5034820;28;20192;-77
2022/03/07 01:42:55;;;;;;;3.95;2.67;;;;;7.10;102629.00;;;;5047934;28;20224;-77
2022/03/07 01:45:22;;;;;;;3.90;2.50;;;;;7.10;102631.00;;;;5038570;28;20195;-77
2022/03/07 01:47:51;;;;;;;3.00;2.42;;;;;7.00;102629.00;;;;5034591;28;20209;-77
2022/03/07 01:50:20;;;;;;;3.40;2.70;;;;;7.00;102625.00;;;;5028037;28;20208;-77
2022/03/07 01:52:50;;;;;;;3.10;2.30;;;;;7.00;102625.00;;;;5029478;28;20192;-77
2022/03/07 01:55:18;;;;;;;3.05;2.45;;;;;7.00;102632.00;;;;5027615;28;21011;-77
2022/03/07 01:57:46;;;;;;;3.40;2.50;;;;;7.00;102627.00;;;;5027988;28;20843;-77
2022/03/07 02:00:17;;;;;;;3.00;2.45;;;;;6.90;102633.00;;;;5028111;28;20227;-77
2022/03/07 02:02:45;;;;;;;3.63;2.70;;;;;6.90;102627.00;;;;5038481;28;20223;-76
2022/03/07 02:05:14;;;;;;;3.17;2.45;;;;;6.90;102627.00;;;;5036790;28;20205;-77
2022/03/07 02:07:42;;;;;;;6.10;2.95;;;;;6.90;102631.00;;;;5037546;28;20740;-77
2022/03/07 02:10:11;;;;;;;3.38;2.78;;;;;6.80;102622.00;;;;5047027;28;20226;-77
2022/03/07 02:12:38;;;;;;;3.50;2.78;;;;;6.80;102624.00;;;;5034213;28;20291;-76
2022/03/07 02:15:07;;;;;;;4.47;2.70;;;;;6.80;102623.00;;;;5046338;28;20658;-77
2022/03/07 02:17:34;;;;;;;3.85;2.65;;;;;6.80;102622.00;;;;5047334;28;20298;-77
2022/03/07 02:20:02;;;;;;;2.97;2.30;;;;;6.70;102620.00;;;;5045646;28;20588;-77
2022/03/07 02:22:30;;;;;;;4.00;2.80;;;;;6.70;102625.00;;;;5048715;28;20212;-77
2022/03/07 02:24:58;;;;;;;4.65;2.55;;;;;6.70;102618.00;;;;5051517;28;20203;-77
2022/03/07 02:27:25;;;;;;;4.80;2.20;;;;;6.70;102615.00;;;;5047604;28;20191;-77
2022/03/07 02:29:52;;;;;;;4.05;2.75;;;;;6.60;102607.00;;;;5049512;28;20657;-76
2022/03/07 02:32:20;;;;;;;3.92;2.83;;;;;6.60;102610.00;;;;5043396;28;20204;-77
2022/03/07 02:34:48;;;;;;;3.92;2.90;;;;;6.60;102610.00;;;;5046464;28;20215;-76
2022/03/07 02:37:15;;;;;;;3.58;2.78;;;;;6.60;102600.00;;;;5032708;28;20196;-77
2022/03/07 02:39:44;;;;;;;3.63;2.75;;;;;6.50;102601.00;;;;5031059;28;20199;-76
2022/03/07 02:42:12;;;;;;;3.90;2.80;;;;;6.50;102607.00;;;;5038055;28;20203;-77
2022/03/07 02:44:40;;;;;;;4.65;2.63;;;;;6.40;102615.00;;;;5050490;28;20263;-76
2022/03/07 02:47:07;;;;;;;3.72;2.90;;;;;6.40;102604.00;;;;5049317;28;20196;-77
2022/03/07 02:49:35;;;;;;;3.50;2.60;;;;;6.40;102603.00;;;;5050607;28;20191;-77
2022/03/07 02:52:02;;;;;;;4.07;3.03;;;;;6.40;102596.00;;;;5049562;28;20188;-77
2022/03/07 02:54:29;;;;;;;4.47;2.80;;;;;6.40;102601.00;;;;5040151;28;20269;-77
2022/03/07 02:56:58;;;;;;;4.55;2.78;;;;;6.30;102597.00;;;;5035911;28;20203;-76
2022/03/07 02:59:25;;;;;;;3.58;2.63;;;;;6.30;102588.00;;;;5051005;28;20608;-77
2022/03/07 03:01:52;;;;;;;2.83;2.53;;;;;6.20;102598.00;;;;5049400;28;20187;-77
2022/03/07 03:04:19;;;;;;;3.60;2.45;;;;;6.20;102594.00;;;;5036369;28;20228;-77
2022/03/07 03:06:47;;;;;;;4.03;2.85;;;;;6.20;102593.00;;;;5033885;28;20199;-76
2022/03/07 03:09:14;;;;;;;2.92;2.58;;;;;6.20;102590.00;;;;5050408;28;20203;-76
2022/03/07 03:11:41;;;;;;;3.95;2.97;;;;;6.10;102586.00;;;;5047312;28;20200;-76
2022/03/07 03:14:10;;;;;;;5.13;3.13;;;;;6.10;102596.00;;;;5040396;28;20202;-76
2022/03/07 03:16:37;;;;;;;3.55;2.90;;;;;6.10;102589.00;;;;5049340;28;20199;-76
2022/03/07 03:19:04;;;;;;;3.75;2.95;;;;;6.10;102594.00;;;;5047097;28;20238;-76
2022/03/07 03:21:31;;;;;;;3.15;2.50;;;;;6.10;102601.00;;;;5049661;28;20253;-76
2022/03/07 03:23:59;;;;;;;3.03;2.55;;;;;6.00;102598.00;;;;5046686;28;20631;-76
2022/03/07 03:26:26;;;;;;;3.30;2.95;;;;;6.00;102600.00;;;;5050251;28;20196;-76
2022/03/07 03:28:53;;;;;;;3.25;2.65;;;;;6.00;102604.00;;;;5048829;28;20207;-76
2022/03/07 03:31:22;;;;;;;3.03;2.45;;;;;6.00;102590.00;;;;5050158;28;20199;-76
2022/03/07 03:33:50;;;;;;;4.50;2.85;;;;;6.00;102595.00;;;;5034398;28;20200;-76
2022/03/07 03:36:17;;;;;;;4.13;2.70;;;;;5.90;102589.00;;;;5042030;28;20278;-76
2022/03/07 03:38:44;;;;;;;4.00;2.70;;;;;5.90;102591.00;;;;5032911;28;20204;-76
2022/03/07 03:41:12;;;;;;;4.55;2.95;;;;;5.90;102596.00;;;;5029253;28;20196;-76
2022/03/07 03:43:39;;;;;;;4.28;2.95;;;;;5.90;102594.00;;;;5051284;28;20268;-75
2022/03/07 03:46:06;;;;;;;4.20;2.97;;;;;5.90;102593.00;;;;5057787;28;20209;-75
2022/03/07 03:48:35;;;;;;;5.13;2.75;;;;;5.80;102592.00;;;;5053016;28;20195;-76
2022/03/07 03:51:02;;;;;;;3.72;2.88;;;;;5.80;102594.00;;;;5049231;28;20209;-76
2022/03/07 03:53:29;;;;;;;4.03;3.00;;;;;5.80;102596.00;;;;5048539;28;20905;-76
2022/03/07 03:55:56;;;;;;;3.42;2.97;;;;;5.80;102595.00;;;;5045441;28;20208;-76
2022/03/07 03:58:23;;;;;;;4.28;3.10;;;;;5.80;102599.00;;;;5041143;28;20650;-76
2022/03/07 04:00:51;;;;;;;2.95;2.47;;;;;5.80;102599.00;;;;5049664;28;20273;-76
2022/03/07 04:03:18;;;;;;;5.28;3.05;;;;;5.80;102594.00;;;;5047954;28;20223;-75
2022/03/07 04:05:47;;;;;;;6.22;3.15;;;;;5.70;102598.00;;;;5050011;28;20677;-75
2022/03/07 04:08:14;;;;;;;4.38;3.20;;;;;5.80;102601.00;;;;5037313;28;20204;-76
2022/03/07 04:10:41;;;;;;;4.30;3.20;;;;;5.70;102599.00;;;;5046124;28;20215;-75
2022/03/07 04:13:08;;;;;;;4.57;2.47;;;;;5.70;102604.00;;;;5037909;28;20671;-76
2022/03/07 04:15:38;;;;;;;3.63;2.97;;;;;5.70;102599.00;;;;5029528;28;20200;-76
2022/03/07 04:18:06;;;;;;;3.58;3.10;;;;;5.70;102603.00;;;;5032468;28;20196;-75
2022/03/07 04:20:33;;;;;;;4.63;3.30;;;;;5.70;102596.00;;;;5028558;28;20319;-76
2022/03/07 04:23:02;;;;;;;4.93;3.25;;;;;5.70;102598.00;;;;5036089;28;20202;-76
2022/03/07 04:25:30;;;;;;;4.60;3.03;;;;;5.70;102601.00;;;;5038526;28;20200;-76
2022/03/07 04:27:57;;;;;;;4.70;3.17;;;;;5.70;102595.00;;;;5048117;28;20572;-75
2022/03/07 04:30:24;;;;;;;4.03;3.33;;;;;5.80;102601.00;;;;5047969;28;20196;-76
2022/03/07 04:32:51;;;;;;;4.38;3.30;;;;;5.70;102604.00;;;;5046535;28;20184;-76
2022/03/07 04:35:19;;;;;;;3.85;2.95;;;;;5.80;102602.00;;;;5048164;28;20585;-75
2022/03/07 04:37:46;;;;;;;3.67;2.92;;;;;5.80;102603.00;;;;5035514;28;20265;-75
2022/03/07 04:40:17;;;;;;;3.80;3.10;;;;;5.80;102605.00;;;;5028012;28;20207;-75
2022/03/07 04:42:47;;;;;;;3.90;2.88;;;;;5.80;102599.00;;;;5030906;28;20291;-76
2022/03/07 04:45:14;;;;;;;4.20;3.53;;;;;5.80;102612.00;;;;5040494;28;20688;-76
2022/03/07 04:47:42;;;;;;;4.32;3.20;;;;;5.80;102606.00;;;;5047860;28;20210;-75
2022/03/07 04:50:12;;;;;;;4.45;3.63;;;;;5.80;102601.00;;;;5057887;28;20630;-75
2022/03/07 04:52:41;;;;;;;4.65;3.47;;;;;5.80;102601.00;;;;5046376;28;20239;-76
2022/03/07 04:55:09;;;;;;;4.47;3.50;;;;;5.80;102598.00;;;;5046822;28;20219;-75
2022/03/07 04:57:38;;;;;;;3.78;3.08;;;;;5.80;102602.00;;;;5043696;28;20205;-75
2022/03/07 05:00:08;;;;;;;5.22;3.33;;;;;5.80;102607.00;;;;5031619;28;20630;-75
2022/03/07 05:02:35;;;;;;;3.25;2.50;;;;;5.80;102602.00;;;;5040817;28;20203;-75
2022/03/07 05:05:03;;;;;;;6.28;3.47;;;;;5.80;102604.00;;;;5037019;28;20285;-75
2022/03/07 05:07:30;;;;;;;4.00;3.03;;;;;5.80;102607.00;;;;5045867;28;20722;-76
2022/03/07 05:09:57;;;;;;;4.90;2.70;;;;;5.80;102602.00;;;;5045614;28;20673;-75
2022/03/07 05:12:25;;;;;;;5.95;3.67;;;;;5.80;102599.00;;;;5048157;28;20277;-75
2022/03/07 05:14:53;;;;;;;4.10;3.10;;;;;5.80;102593.00;;;;5046124;28;20195;-76
2022/03/07 05:17:21;;;;;;;6.72;3.17;;;;;5.80;102599.00;;;;5047634;28;20210;-76
2022/03/07 05:19:48;;;;;;;4.72;3.67;;;;;5.80;102602.00;;;;5047004;28;20231;-76
2022/03/07 05:22:17;;;;;;;4.47;3.17;;;;;5.80;102613.00;;;;5038589;28;20208;-76
2022/03/07 05:24:44;;;;;;;6.53;3.10;;;;;5.80;102604.00;;;;5028413;28;20220;-76
2022/03/07 05:27:11;;;;;;;3.80;3.10;;;;;5.70;102603.00;;;;5045736;28;20238;-75
2022/03/07 05:29:39;;;;;;;4.32;2.97;;;;;5.70;102613.00;;;;5047339;28;20199;-76
2022/03/07 05:32:08;;;;;;;4.28;3.50;;;;;5.70;102605.00;;;;5027427;28;20204;-75
2022/03/07 05:34:35;;;;;;;5.70;3.00;;;;;5.70;102615.00;;;;5034610;28;20277;-75
2022/03/07 05:37:03;;;;;;;5.13;2.85;;;;;5.70;102609.00;;;;5028423;28;20197;-76
2022/03/07 05:39:30;;;;;;;5.50;3.63;;;;;5.70;102610.00;;;;5027917;28;20200;-75
2022/03/07 05:41:57;;;;;;;7.10;3.20;;;;;5.70;102611.00;;;;5027659;28;20200;-76
2022/03/07 05:44:24;;;;;;;3.65;2.97;;;;;5.70;102614.00;;;;5040086;28;20215;-76
2022/03/07 05:46:52;;;;;;;4.28;3.15;;;;;5.70;102615.00;;;;5036865;28;20655;-76
2022/03/07 05:49:21;;;;;;;6.20;3.70;;;;;5.60;102615.00;;;;5040620;28;20210;-76
2022/03/07 05:51:48;;;;;;;3.20;2.90;;;;;5.70;102617.00;;;;5039777;28;20197;-76
2022/03/07 05:54:15;;;;;;;4.07;3.53;;;;;5.60;102612.00;;;;5037790;28;20216;-75
2022/03/07 05:56:43;;;;;;;5.68;3.75;;;;;5.60;102618.00;;;;5050153;28;20235;-75
2022/03/07 05:59:10;;;;;;;4.18;3.70;;;;;5.60;102629.00;;;;5030826;28;20231;-76
2022/03/07 06:01:37;;;;;;;7.57;4.40;;;;;5.70;102630.00;;;;5045450;28;20200;-75
2022/03/07 06:04:05;;;;;;;6.78;3.58;;;;;5.60;102631.00;;;;5049048;28;20693;-76
2022/03/07 06:06:33;;;;;;;4.30;3.53;;;;;5.60;102628.00;;;;5046154;28;20207;-76
2022/03/07 06:09:01;;;;;;;4.82;3.08;;;;;5.70;102635.00;;;;5045871;28;20257;-76
2022/03/07 06:11:28;;;;;;;4.75;3.72;;;;;5.70;102634.00;;;;5046550;28;20202;-76
2022/03/07 06:13:55;;;;;;;10.13;8.13;;;;;5.60;102649.00;;;;5048388;28;20885;-76
2022/03/07 06:16:22;;;;;;;8.05;5.35;;;;;5.80;102640.00;;;;5048296;28;20200;-74
2022/03/07 06:18:49;;;;;;;5.88;4.22;;;;;5.80;102633.00;;;;5032962;28;20683;-75
2022/03/07 06:21:17;;;;;;;6.10;3.90;;;;;5.80;102635.00;;;;5040876;28;20201;-75
2022/03/07 06:23:45;;;;;;;7.00;4.45;;;;;5.80;102640.00;;;;5048481;28;20196;-75
2022/03/07 06:26:13;;;;;;;5.55;3.85;;;;;5.80;102639.00;;;;5050422;28;20633;-75
2022/03/07 06:28:41;;;;;;;6.00;3.67;;;;;5.80;102640.00;;;;5049434;28;20199;-76
2022/03/07 06:31:08;;;;;;;6.68;4.70;;;;;5.80;102646.00;;;;5050322;28;20222;-77
2022/03/07 06:33:36;;;;;;;4.75;4.00;;;;;5.80;102652.00;;;;5048728;28;20199;-76
2022/03/07 06:36:05;;;;;;;5.50;4.35;;;;;5.80;102647.00;;;;5049999;28;20315;-74
2022/03/07 06:38:32;;;;;;;5.93;4.30;;;;;5.90;102648.00;;;;5039286;28;20199;-76
2022/03/07 06:41:01;;;;;;;5.70;4.05;;;;;5.90;102655.00;;;;5046398;28;20192;-77
2022/03/07 06:43:28;;;;;;;6.55;4.00;;;;;5.90;102649.00;;;;5043776;28;20195;-76
2022/03/07 06:45:55;;;;;;;5.00;4.03;;;;;5.90;102658.00;;;;5047442;28;20697;-76
2022/03/07 06:48:23;;;;;;;5.85;3.75;;;;;5.90;102654.00;;;;5035454;28;20201;-76
2022/03/07 06:50:50;;;;;;;4.15;3.47;;;;;6.00;102657.00;;;;5039593;28;20709;-76
2022/03/07 06:53:17;;;;;;;6.85;4.03;;;;;6.00;102653.00;;;;5049731;28;20200;-77
2022/03/07 06:55:44;;;;;;;6.70;3.97;;;;;6.00;102654.00;;;;5045224;28;20216;-76
2022/03/07 06:58:13;;;;;;;5.72;3.92;;;;;6.00;102665.00;;;;5050104;28;20195;-77
2022/03/07 07:00:40;;;;;;;6.22;4.40;;;;;6.10;102663.00;;;;5046982;28;20219;-78
2022/03/07 07:03:07;;;;;;;6.45;4.45;;;;;6.10;102659.00;;;;5030193;28;20216;-76
2022/03/07 07:05:35;;;;;;;7.63;4.47;;;;;6.20;102661.00;;;;5048480;28;20226;-77
2022/03/07 07:08:02;;;;;;;5.28;3.63;;;;;6.20;102662.00;;;;5058780;28;20199;-77
2022/03/07 07:10:29;;;;;;;5.05;4.35;;;;;6.20;102652.00;;;;5048902;28;20226;-77
2022/03/07 07:12:57;;;;;;;5.80;4.22;;;;;6.30;102656.00;;;;5050042;28;20253;-77
2022/03/07 07:15:25;;;;;;;5.60;4.32;;;;;6.30;102663.00;;;;5049863;28;20199;-76
2022/03/07 07:17:53;;;;;;;5.47;4.15;;;;;6.40;102662.00;;;;5049169;28;20204;-76
2022/03/07 07:20:20;;;;;;;7.82;4.32;;;;;6.50;102667.00;;;;5049756;28;20230;-76
2022/03/07 07:22:47;;;;;;;5.78;4.13;;;;;6.50;102664.00;;;;5045306;28;20206;-76
2022/03/07 07:25:14;;;;;;;5.97;4.35;;;;;6.60;102667.00;;;;5049832;28;20227;-76
2022/03/07 07:27:41;;;;;;;5.60;4.38;;;;;6.70;102662.00;;;;5049992;28;20199;-77
2022/03/07 07:30:09;;;;;;;6.47;4.20;;;;;6.80;102662.00;;;;5049815;28;20214;-76
2022/03/07 07:32:39;;;;;;;4.90;3.83;;;;;6.80;102657.00;;;;5050213;28;20230;-75
2022/03/07 07:35:08;;;;;;;6.90;3.75;;;;;6.90;102658.00;;;;5049874;28;20642;-75
2022/03/07 07:37:35;;;;;;;4.82;4.10;;;;;7.00;102662.00;;;;5049300;28;20211;-75
2022/03/07 07:40:03;;;;;;;4.80;3.97;;;;;7.00;102662.00;;;;5049851;28;20215;-75
2022/03/07 07:42:30;;;;;;;4.85;4.13;;;;;7.10;102659.00;;;;5043041;28;20200;-75
2022/03/07 07:44:58;;;;;;;6.05;4.13;;;;;7.20;102662.00;;;;5029393;28;20231;-75
2022/03/07 07:47:25;;;;;;;5.05;3.78;;;;;7.30;102657.00;;;;5029600;28;20196;-76
2022/03/07 07:49:53;;;;;;;5.53;3.95;;;;;7.40;102656.00;;;;5030987;28;20241;-76
2022/03/07 07:52:21;;;;;;;6.65;4.72;;;;;7.50;102654.00;;;;5049113;28;20204;-77
2022/03/07 07:54:48;;;;;;;5.15;4.00;;;;;7.60;102661.00;;;;5049842;28;20216;-77
2022/03/07 07:57:15;;;;;;;5.40;3.67;;;;;7.70;102659.00;;;;5041328;28;20246;-77
2022/03/07 07:59:42;;;;;;;5.10;4.07;;;;;7.80;102663.00;;;;5042552;28;20211;-77
2022/03/07 08:02:10;;;;;;;4.20;3.78;;;;;7.90;102661.00;;;;5029223;28;20564;-76
2022/03/07 08:04:37;;;;;;;4.55;3.83;;;;;8.00;102666.00;;;;5041446;28;20219;-76
2022/03/07 08:07:05;;;;;;;5.30;4.10;;;;;8.00;102670.00;;;;5045161;28;20818;-77
2022/03/07 08:09:34;;;;;;;4.50;3.58;;;;;8.20;102671.00;;;;5039131;28;20193;-78
2022/03/07 08:12:02;;;;;;;4.70;3.53;;;;;8.20;102674.00;;;;5048028;28;20300;-78
2022/03/07 08:14:30;;;;;;;4.63;3.95;;;;;8.30;102670.00;;;;5044876;28;20203;-78
2022/03/07 08:16:57;;;;;;;4.43;3.40;;;;;8.40;102671.00;;;;5027269;28;20188;-78
2022/03/07 08:19:24;;;;;;;5.45;4.22;;;;;8.50;102676.00;;;;5035621;28;20499;-77
2022/03/07 08:21:52;;;;;;;5.53;3.88;;;;;8.60;102681.00;;;;5029623;28;20675;-78
2022/03/07 08:24:21;;;;;;;7.10;4.07;;;;;8.70;102681.00;;;;5029504;28;20233;-80
2022/03/07 08:26:48;;;;;;;4.47;3.70;;;;;8.80;102682.00;;;;5032254;28;20219;-79
2022/03/07 08:29:15;;;;;;;4.85;3.80;;;;;8.90;102683.00;;;;5036275;28;20200;-79
2022/03/07 08:31:42;;;;;;;4.25;3.40;;;;;9.00;102679.00;;;;5036961;28;20211;-79
2022/03/07 08:34:09;;;;;;;5.65;3.97;;;;;9.00;102681.00;;;;5040303;28;20201;-80
2022/03/07 08:36:37;;;;;;;4.25;3.42;;;;;9.10;102686.00;;;;5043707;28;20210;-79
2022/03/07 08:39:05;;;;;;;4.43;3.47;;;;;9.20;102678.00;;;;5033596;28;20199;-80
2022/03/07 08:41:34;;;;;;;4.07;3.58;;;;;9.30;102683.00;;;;5042757;28;20203;-79
2022/03/07 08:44:01;;;;;;;4.88;3.55;;;;;9.40;102686.00;;;;5040143;28;20231;-77
2022/03/07 08:46:28;;;;;;;5.15;3.60;;;;;9.50;102678.00;;;;5045347;28;20218;-77
2022/03/07 08:48:56;;;;;;;6.53;4.05;;;;;9.60;102678.00;;;;5032628;28;20646;-78
2022/03/07 08:51:23;;;;;;;6.47;4.18;;;;;9.60;102678.00;;;;5043811;28;20207;-76
2022/03/07 08:53:50;;;;;;;4.70;3.78;;;;;9.70;102668.00;;;;5039801;28;20278;-76
2022/03/07 08:56:18;;;;;;;4.70;3.63;;;;;9.80;102673.00;;;;5046631;28;20202;-76
2022/03/07 08:58:46;;;;;;;5.55;3.72;;;;;9.90;102676.00;;;;5045147;28;20254;-76
2022/03/07 09:01:13;;;;;;;4.78;3.83;;;;;9.90;102667.00;;;;5026819;28;20585;-77
2022/03/07 09:03:41;;;;;;;4.63;3.15;;;;;10.00;102669.00;;;;5033833;28;20977;-76
2022/03/07 09:06:08;;;;;;;6.20;3.60;;;;;10.10;102675.00;;;;5032884;28;20224;-77
2022/03/07 09:08:35;;;;;;;5.28;4.45;;;;;10.20;102670.00;;;;5029177;28;20641;-76
2022/03/07 09:11:03;;;;;;;7.45;4.43;;;;;10.30;102674.00;;;;5027684;28;20207;-77
2022/03/07 09:13:30;;;;;;;5.78;3.78;;;;;10.40;102671.00;;;;5033055;28;20210;-77
2022/03/07 09:15:59;;;;;;;4.28;3.88;;;;;10.40;102659.00;;;;5040998;28;20204;-77
2022/03/07 09:18:27;;;;;;;4.28;3.47;;;;;10.50;102656.00;;;;5028221;28;20196;-76
2022/03/07 09:20:56;;;;;;;5.72;4.00;;;;;10.60;102660.00;;;;5040263;28;20192;-76
2022/03/07 09:23:25;;;;;;;5.15;4.18;;;;;10.70;102659.00;;;;5040527;28;20321;-77
2022/03/07 09:25:52;;;;;;;6.00;3.47;;;;;10.80;102658.00;;;;5045513;28;20223;-75
2022/03/07 09:28:19;;;;;;;6.15;3.85;;;;;10.90;102653.00;;;;5039672;28;20196;-76
2022/03/07 09:30:46;;;;;;;5.80;4.03;;;;;10.90;102660.00;;;;5042853;28;20195;-76
2022/03/07 09:33:15;;;;;;;5.10;4.05;;;;;11.00;102655.00;;;;5038791;28;20214;-77
2022/03/07 09:35:42;;;;;;;5.10;4.35;;;;;11.10;102660.00;;;;5037370;28;20627;-76
2022/03/07 09:38:10;;;;;;;4.28;3.53;;;;;11.10;102670.00;;;;5036490;28;20199;-77
2022/03/07 09:40:38;;;;;;;4.85;3.50;;;;;11.20;102668.00;;;;5043785;28;20240;-77
2022/03/07 09:43:05;;;;;;;4.45;3.53;;;;;11.30;102667.00;;;;5040967;28;20191;-77
2022/03/07 09:45:33;;;;;;;5.05;3.75;;;;;11.40;102661.00;;;;5042682;28;20763;-77
2022/03/07 09:48:00;;;;;;;4.00;3.28;;;;;11.50;102666.00;;;;5046058;28;20200;-77
2022/03/07 09:50:29;;;;;;;5.05;3.70;;;;;11.50;102658.00;;;;5048761;28;20681;-77
2022/03/07 09:52:56;;;;;;;4.45;3.72;;;;;11.60;102661.00;;;;5044476;28;20196;-83
2022/03/07 09:55:25;;;;;;;4.07;3.67;;;;;11.70;102662.00;;;;5038100;28;20899;-81
2022/03/07 09:57:52;;;;;;;4.40;3.13;;;;;11.80;102658.00;;;;5039878;28;20211;-80
2022/03/07 10:00:20;;;;;;;4.22;3.60;;;;;11.90;102644.00;;;;5047148;28;20199;-82
2022/03/07 10:02:59;;;;;;;4.15;3.40;;;;;11.90;102647.00;;;;5041511;28;20193;-81
2022/03/07 10:05:33;;;;;;;5.47;4.03;;;;;12.00;102644.00;;;;5033114;28;20219;-81
2022/03/07 10:08:00;;;;;;;3.40;2.90;;;;;12.10;102633.00;;;;5039031;28;20205;-83
2022/03/07 10:10:32;;;;;;;5.00;3.65;;;;;12.10;102634.00;;;;5045823;28;20192;-83
2022/03/07 10:13:06;;;;;;;4.53;3.97;;;;;12.20;102631.00;;;;5031028;28;20558;-82
2022/03/07 10:15:33;;;;;;;4.35;3.25;;;;;12.30;102630.00;;;;5033897;28;20281;-81
2022/03/07 10:18:01;;;;;;;3.88;3.30;;;;;12.40;102626.00;;;;5043131;28;20684;-82
2022/03/07 10:20:30;;;;;;;4.07;3.10;;;;;12.50;102627.00;;;;5045428;28;20610;-82
2022/03/07 10:23:00;;;;;;;3.15;2.85;;;;;12.50;102627.00;;;;5043302;28;20214;-82
2022/03/07 10:25:29;;;;;;;3.30;2.83;;;;;12.60;102621.00;;;;5038167;28;20219;-80
2022/03/07 10:27:59;;;;;;;3.28;2.65;;;;;12.70;102617.00;;;;5045990;28;20192;-81
2022/03/07 10:30:30;;;;;;;3.90;3.10;;;;;12.80;102613.00;;;;5044179;28;20196;-81
2022/03/07 10:32:59;;;;;;;2.72;2.47;;;;;12.90;102611.00;;;;5036136;28;20207;-82
2022/03/07 10:35:29;;;;;;;2.63;2.42;;;;;13.00;102611.00;;;;5045388;28;20199;-82
2022/03/07 10:37:59;;;;;;;4.82;2.85;;;;;13.00;102608.00;;;;5039651;28;20223;-81
2022/03/07 10:40:28;;;;;;;2.88;2.35;;;;;13.10;102611.00;;;;5042939;28;20208;-81
2022/03/07 10:43:00;;;;;;;3.83;2.15;;;;;13.20;102601.00;;;;5044258;28;20200;-81
2022/03/07 10:45:28;;;;;;;5.13;3.00;;;;;13.20;102602.00;;;;5039749;28;20242;-81
2022/03/07 10:47:58;;;;;;;3.45;2.75;;;;;13.30;102608.00;;;;5030423;28;20200;-80
2022/03/07 10:50:29;;;;;;;2.92;2.60;;;;;13.40;102606.00;;;;5035097;28;20188;-81
2022/03/07 10:53:03;;;;;;;4.05;2.85;;;;;13.40;102591.00;;;;5039474;28;20196;-79
2022/03/07 10:55:32;;;;;;;3.50;2.83;;;;;13.50;102596.00;;;;5034828;28;20219;-78
2022/03/07 10:58:07;;;;;;;5.43;3.85;;;;;13.50;102585.00;;;;5040270;28;20203;-79
2022/03/07 11:00:36;;;;;;;3.70;2.78;;;;;13.70;102585.00;;;;5038083;28;20207;-78
2022/03/07 11:03:03;;;;;;;3.42;2.78;;;;;13.70;102583.00;;;;5043263;28;20195;-81
2022/03/07 11:05:31;;;;;;;5.13;3.47;;;;;13.80;102575.00;;;;5044201;28;20195;-79
2022/03/07 11:08:00;;;;;;;2.85;2.38;;;;;13.90;102569.00;;;;5043827;28;20195;-83
2022/03/07 11:10:27;;;;;;;5.25;3.08;;;;;14.00;102579.00;;;;5038008;28;20196;-83
2022/03/07 11:12:55;;;;;;;3.67;3.08;;;;;14.00;102568.00;;;;5046476;28;20600;-82
2022/03/07 11:15:22;;;;;;;5.03;3.28;;;;;14.00;102572.00;;;;5041338;28;20206;-82
2022/03/07 11:17:49;;;;;;;3.00;2.65;;;;;14.10;102568.00;;;;5045007;28;20200;-81
2022/03/07 11:20:18;;;;;;;3.80;2.78;;;;;14.10;102571.00;;;;5038314;28;20226;-80
2022/03/07 11:22:46;;;;;;;4.32;2.90;;;;;14.10;102559.00;;;;5047851;28;20203;-80
2022/03/07 11:25:16;;;;;;;4.15;2.75;;;;;14.10;102565.00;;;;5045880;28;20261;-81
2022/03/07 11:27:44;;;;;;;3.88;2.80;;;;;14.20;102563.00;;;;5060256;28;20229;-80
2022/03/07 11:30:19;;;;;;;3.22;2.70;;;;;14.20;102556.00;;;;5048623;28;20210;-79
2022/03/07 11:32:47;;;;;;;2.75;2.30;;;;;14.30;102563.00;;;;5048805;28;20867;-79
2022/03/07 11:35:15;;;;;;;3.28;2.65;;;;;14.40;102550.00;;;;5049049;28;20211;-79
2022/03/07 11:37:43;;;;;;;3.65;2.40;;;;;14.40;102558.00;;;;5048612;28;20192;-78
2022/03/07 11:40:20;;;;;;;3.25;2.47;;;;;14.40;102549.00;;;;5045018;28;20262;-78
2022/03/07 11:42:47;;;;;;;3.10;2.42;;;;;14.60;102556.00;;;;5049691;28;20881;-79
2022/03/07 11:45:20;;;;;;;3.22;2.83;;;;;14.60;102548.00;;;;5039545;28;20200;-80
2022/03/07 11:47:50;;;;;;;2.67;2.28;;;;;14.60;102549.00;;;;5047135;28;20784;-79
2022/03/07 11:50:20;;;;;;;3.22;2.55;;;;;14.70;102550.00;;;;5036124;28;20204;-79
2022/03/07 11:52:47;;;;;;;4.55;2.60;;;;;14.70;102553.00;;;;5042019;28;20208;-79
2022/03/07 11:55:19;;;;;;;4.05;2.65;;;;;14.70;102553.00;;;;5030266;28;20220;-79
2022/03/07 11:57:48;;;;;;;2.85;2.50;;;;;14.70;102548.00;;;;5038951;28;20223;-80
2022/03/07 12:00:21;;;;;;;3.00;2.28;;;;;14.70;102542.00;;;;5030759;28;20290;-79
2022/03/07 12:02:51;;;;;;;4.07;2.30;;;;;14.80;102543.00;;;;5029697;28;20204;-80
2022/03/07 12:05:23;;;;;;;2.70;2.45;;;;;14.80;102538.00;;;;5034946;28;20998;-79
2022/03/07 12:07:50;;;;;;;3.25;2.03;;;;;14.80;102531.00;;;;5044645;28;20223;-79
2022/03/07 12:10:20;;;;;;;3.25;2.70;;;;;14.80;102529.00;;;;5046760;28;21107;-80
2022/03/07 12:12:47;;;;;;;3.03;2.40;;;;;14.90;102523.00;;;;5049193;28;20200;-80
2022/03/07 12:15:15;;;;;;;2.70;2.25;;;;;14.90;102526.00;;;;5034127;28;20200;-80
2022/03/07 12:17:43;;;;;;;3.35;2.28;;;;;14.90;102519.00;;;;5036964;28;20200;-78
2022/03/07 12:20:10;;;;;;;3.55;2.17;;;;;15.00;102525.00;;;;5032912;28;20223;-78